Time;durP1;ratioP1;P1;durP2;ratioP2;P2;SDS_P1;SDS_P2;PMS_P1;PMS_P2;Temp;Humidity;BMP_temperature;BMP_pressure;BME280_temperature;BME280_humidity;BME280_pressure;Samples;Min_cycle;Max_cycle;Signal;HPM_P1;HPM_P2
2023/04/21 00:00:54;;;;;;;5.50;5.10;;;;;;;7.00;100.00;95123.38;5031280;28;20021;-78
2023/04/21 00:03:20;;;;;;;4.95;4.30;;;;;;;6.80;100.00;95133.78;5027457;28;20033;-77
2023/04/21 00:05:47;;;;;;;7.97;5.97;;;;;;;6.70;100.00;95132.91;5033306;28;20037;-77
2023/04/21 00:08:13;;;;;;;4.30;3.90;;;;;;;6.63;100.00;95126.56;5031859;28;20108;-78
2023/04/21 00:10:38;;;;;;;4.68;3.50;;;;;;;6.61;100.00;95131.91;5029932;28;20060;-78
2023/04/21 00:13:04;;;;;;;3.80;3.60;;;;;;;6.51;100.00;95144.94;5028314;28;20042;-78
2023/04/21 00:15:29;;;;;;;4.53;4.22;;;;;;;6.54;100.00;95142.09;5031446;28;20072;-77
2023/04/21 00:17:54;;;;;;;4.93;4.05;;;;;;;6.76;100.00;95116.69;5030021;28;20055;-77
2023/04/21 00:20:20;;;;;;;4.80;4.50;;;;;;;6.64;100.00;95115.97;5021761;28;20053;-77
2023/04/21 00:22:46;;;;;;;4.95;4.07;;;;;;;6.59;100.00;95112.91;5029720;28;20055;-76
2023/04/21 00:25:11;;;;;;;4.88;4.47;;;;;;;6.51;100.00;95105.69;5012576;28;20026;-77
2023/04/21 00:27:36;;;;;;;4.40;4.13;;;;;;;6.57;100.00;95102.59;5025840;28;20451;-77
2023/04/21 00:30:02;;;;;;;4.75;4.22;;;;;;;6.54;100.00;95110.69;5011170;28;20056;-77
2023/04/21 00:32:27;;;;;;;5.18;4.72;;;;;;;6.55;100.00;95106.28;5030293;28;20064;-78
2023/04/21 00:34:53;;;;;;;5.10;4.60;;;;;;;6.45;100.00;95114.06;5015932;28;20063;-78
2023/04/21 00:37:18;;;;;;;5.88;5.03;;;;;;;6.52;100.00;95120.47;5021637;28;20057;-77
2023/04/21 00:39:44;;;;;;;5.72;5.18;;;;;;;6.43;100.00;95116.00;5013128;28;20397;-77
2023/04/21 00:42:09;;;;;;;5.35;4.85;;;;;;;6.49;100.00;95115.47;5028766;28;20029;-78
2023/04/21 00:44:35;;;;;;;5.20;4.70;;;;;;;6.47;100.00;95119.19;5008492;28;20108;-78
2023/04/21 00:47:00;;;;;;;5.18;4.80;;;;;;;6.51;100.00;95105.69;5027605;28;20414;-78
2023/04/21 00:49:26;;;;;;;5.18;4.68;;;;;;;6.63;100.00;95103.84;5029323;28;20034;-78
2023/04/21 00:51:52;;;;;;;5.82;5.35;;;;;;;6.62;100.00;95089.09;5027411;28;20180;-78
2023/04/21 00:54:18;;;;;;;5.47;4.97;;;;;;;6.72;100.00;95089.13;5027397;28;20041;-78
2023/04/21 00:56:44;;;;;;;5.60;4.68;;;;;;;6.72;100.00;95076.03;5027103;28;20033;-78
2023/04/21 00:59:09;;;;;;;5.03;4.50;;;;;;;6.74;100.00;95079.34;5029584;28;20083;-78
2023/04/21 01:01:35;;;;;;;5.70;4.57;;;;;;;6.70;100.00;95080.59;5008882;28;20029;-78
2023/04/21 01:04:01;;;;;;;4.78;4.47;;;;;;;6.68;100.00;95072.88;5031069;28;20045;-77
2023/04/21 01:06:28;;;;;;;4.18;3.80;;;;;;;6.56;100.00;95064.31;5029865;28;20095;-77
2023/04/21 01:08:54;;;;;;;7.78;3.35;;;;;;;6.53;100.00;95063.75;5028807;28;20029;-77
2023/04/21 01:11:20;;;;;;;3.60;3.30;;;;;;;6.48;100.00;95065.94;5024724;28;20405;-77
2023/04/21 01:13:46;;;;;;;3.75;3.45;;;;;;;6.52;100.00;95086.47;5030091;28;20018;-77
2023/04/21 01:16:16;;;;;;;4.03;3.75;;;;;;;6.66;100.00;95093.13;5023840;28;20040;-76
2023/04/21 01:18:43;;;;;;;3.40;3.20;;;;;;;6.72;100.00;95102.19;5028777;28;20109;-77
2023/04/21 01:21:08;;;;;;;6.18;4.60;;;;;;;6.68;100.00;95108.66;5025177;28;20030;-77
2023/04/21 01:23:34;;;;;;;9.32;4.78;;;;;;;6.58;100.00;95119.94;5030639;28;20036;-77
2023/04/21 01:25:59;;;;;;;5.10;4.70;;;;;;;6.53;100.00;95119.50;5028490;28;20036;-78
2023/04/21 01:28:25;;;;;;;4.65;4.32;;;;;;;6.53;100.00;95111.66;5028504;28;20026;-78
2023/04/21 01:30:51;;;;;;;4.85;4.38;;;;;;;6.52;100.00;95110.00;5029285;28;20469;-78
2023/04/21 01:33:18;;;;;;;5.65;5.15;;;;;;;6.54;100.00;95113.31;5007892;28;20025;-78
2023/04/21 01:35:43;;;;;;;4.15;3.85;;;;;;;6.65;100.00;95108.94;5024295;28;20486;-78
2023/04/21 01:38:09;;;;;;;4.53;4.20;;;;;;;6.62;100.00;95119.66;5030569;28;20034;-77
2023/04/21 01:40:35;;;;;;;4.35;4.05;;;;;;;6.63;100.00;95123.94;5026716;28;20030;-77
2023/04/21 01:43:02;;;;;;;4.20;3.90;;;;;;;6.58;100.00;95119.09;5030392;28;20467;-77
2023/04/21 01:45:28;;;;;;;4.43;3.88;;;;;;;6.60;100.00;95130.25;5016002;28;20025;-77
2023/04/21 01:47:54;;;;;;;3.90;3.60;;;;;;;6.68;100.00;95132.22;5030257;28;20099;-77
2023/04/21 01:50:19;;;;;;;5.50;4.07;;;;;;;6.73;100.00;95133.47;5029578;28;20397;-77
2023/04/21 01:52:45;;;;;;;4.03;3.72;;;;;;;6.77;100.00;95131.44;5026655;28;20044;-78
2023/04/21 01:55:10;;;;;;;6.40;3.70;;;;;;;6.77;100.00;95135.81;5029693;28;20018;-77
2023/04/21 01:57:35;;;;;;;4.20;3.80;;;;;;;6.75;100.00;95138.59;5034911;28;20447;-77
2023/04/21 02:00:02;;;;;;;6.47;5.85;;;;;;;6.68;100.00;95146.13;5030862;28;20021;-77
2023/04/21 02:02:28;;;;;;;3.80;3.42;;;;;;;6.70;100.00;95140.75;5028505;28;20037;-77
2023/04/21 02:04:54;;;;;;;4.03;3.63;;;;;;;6.67;100.00;95143.63;5030051;28;20032;-76
2023/04/21 02:07:19;;;;;;;5.03;3.58;;;;;;;6.67;100.00;95143.63;5028952;28;20107;-76
2023/04/21 02:09:45;;;;;;;3.70;3.50;;;;;;;6.65;100.00;95141.16;5030201;28;20242;-76
2023/04/21 02:12:11;;;;;;;3.65;3.45;;;;;;;6.69;100.00;95137.31;5027792;28;20029;-77
2023/04/21 02:14:37;;;;;;;4.60;3.50;;;;;;;6.82;100.00;95121.41;5025893;28;20033;-77
2023/04/21 02:17:03;;;;;;;3.40;3.20;;;;;;;6.97;100.00;95119.22;5026773;28;20080;-76
2023/04/21 02:19:29;;;;;;;4.53;3.10;;;;;;;6.96;100.00;95111.50;5027777;28;20022;-75
2023/04/21 02:21:55;;;;;;;3.55;3.20;;;;;;;6.81;100.00;95109.28;5024790;28;20465;-76
2023/04/21 02:24:20;;;;;;;4.45;3.53;;;;;;;6.80;100.00;95112.84;5021283;28;20451;-77
2023/04/21 02:26:46;;;;;;;3.90;3.58;;;;;;;6.74;100.00;95105.50;5027533;28;20025;-76
2023/04/21 02:29:11;;;;;;;4.15;3.40;;;;;;;6.62;100.00;95091.69;5026669;28;20545;-76
2023/04/21 02:31:37;;;;;;;5.13;3.70;;;;;;;6.56;100.00;95085.22;5027431;28;20033;-76
2023/04/21 02:34:03;;;;;;;5.68;3.55;;;;;;;6.64;100.00;95084.56;5027669;28;20026;-76
2023/04/21 02:36:28;;;;;;;3.70;3.50;;;;;;;6.70;100.00;95091.03;5024727;28;20061;-76
2023/04/21 02:38:54;;;;;;;3.42;3.13;;;;;;;6.76;100.00;95085.31;5032238;28;20021;-77
2023/04/21 02:41:19;;;;;;;3.00;2.83;;;;;;;6.70;100.00;95080.59;5031699;28;20037;-77
2023/04/21 02:43:44;;;;;;;4.57;2.80;;;;;;;6.67;100.00;95076.47;5031133;28;20030;-76
2023/04/21 02:46:10;;;;;;;3.10;2.90;;;;;;;6.69;100.00;95089.38;5031165;28;20029;-77
2023/04/21 02:48:35;;;;;;;3.03;2.83;;;;;;;6.68;100.00;95090.34;5032554;28;20482;-76
2023/04/21 02:51:01;;;;;;;4.32;3.92;;;;;;;6.65;100.00;95095.84;5030996;28;20032;-76
2023/04/21 02:53:26;;;;;;;3.97;3.65;;;;;;;6.65;100.00;95108.94;5033178;28;20449;-77
2023/04/21 02:55:52;;;;;;;3.35;3.15;;;;;;;6.67;100.00;95094.78;5030182;28;20116;-77
2023/04/21 02:58:17;;;;;;;3.78;3.58;;;;;;;6.66;100.00;95100.13;5027376;28;20024;-76
2023/04/21 03:00:43;;;;;;;4.72;4.32;;;;;;;6.62;100.00;95107.41;5030893;28;20022;-76
2023/04/21 03:03:08;;;;;;;5.68;3.67;;;;;;;6.61;100.00;95110.16;5031332;28;20033;-76
2023/04/21 03:05:34;;;;;;;3.72;3.42;;;;;;;6.65;100.00;95099.31;5030322;28;20029;-76
2023/04/21 03:07:59;;;;;;;3.58;3.35;;;;;;;6.62;100.00;95104.78;5029635;28;20504;-76
2023/04/21 03:10:25;;;;;;;4.10;3.05;;;;;;;6.64;100.00;95099.44;5027954;28;20104;-76
2023/04/21 03:12:50;;;;;;;3.58;3.30;;;;;;;6.63;100.00;95100.41;5030907;28;20048;-76
2023/04/21 03:15:16;;;;;;;4.75;3.15;;;;;;;6.69;100.00;95103.31;5034915;28;20017;-76
2023/04/21 03:17:41;;;;;;;6.05;3.65;;;;;;;6.70;100.00;95098.91;5033999;28;20033;-76
2023/04/21 03:20:07;;;;;;;4.35;3.35;;;;;;;6.63;100.00;95100.41;5026592;28;20467;-76
2023/04/21 03:22:37;;;;;;;3.38;3.15;;;;;;;6.52;100.00;95102.16;5036634;28;20025;-77
2023/04/21 03:25:04;;;;;;;3.60;3.40;;;;;;;6.44;100.00;95105.41;5033373;28;20041;-79
2023/04/21 03:27:30;;;;;;;3.70;3.42;;;;;;;6.41;100.00;95104.84;5032045;28;20394;-77
2023/04/21 03:29:55;;;;;;;3.70;3.40;;;;;;;6.37;100.00;95103.44;5029044;28;20017;-78
2023/04/21 03:32:21;;;;;;;3.83;3.53;;;;;;;6.33;100.00;95104.69;5020827;28;20125;-77
2023/04/21 03:34:46;;;;;;;3.88;3.45;;;;;;;6.32;100.00;95103.84;5028072;28;20409;-77
2023/04/21 03:37:11;;;;;;;3.90;3.60;;;;;;;6.32;100.00;95103.03;5034624;28;20045;-78
2023/04/21 03:39:37;;;;;;;3.88;3.35;;;;;;;6.22;100.00;95100.34;5038883;28;20016;-76
2023/04/21 03:42:03;;;;;;;6.07;5.60;;;;;;;6.10;100.00;95089.16;5027469;28;20025;-77
2023/04/21 03:44:29;;;;;;;14.25;8.98;;;;;;;6.04;100.00;95092.25;5033894;28;20316;-76
2023/04/21 03:46:56;;;;;;;4.80;4.40;;;;;;;5.97;100.00;95081.50;5033944;28;20080;-77
2023/04/21 03:49:22;;;;;;;4.00;3.80;;;;;;;5.89;100.00;95076.91;5032182;28;20044;-76
2023/04/21 03:51:47;;;;;;;5.05;3.90;;;;;;;5.81;100.00;95089.75;5029494;28;20029;-78
2023/04/21 03:54:12;;;;;;;3.80;3.50;;;;;;;5.73;100.00;95087.78;5036417;28;20535;-76
2023/04/21 03:56:38;;;;;;;3.80;3.40;;;;;;;5.70;100.00;95077.56;5032785;28;20061;-77
2023/04/21 03:59:04;;;;;;;4.05;3.65;;;;;;;5.66;100.00;95090.09;5034220;28;20279;-78
2023/04/21 04:01:30;;;;;;;3.90;3.70;;;;;;;5.62;100.00;95096.50;5032668;28;20088;-77
2023/04/21 04:03:55;;;;;;;5.75;5.20;;;;;;;5.63;100.00;95092.91;5032367;28;20013;-75
2023/04/21 04:06:20;;;;;;;4.60;4.20;;;;;;;5.64;100.00;95107.66;5030215;28;20037;-78
2023/04/21 04:08:46;;;;;;;4.50;4.07;;;;;;;5.70;100.00;95115.00;5016421;28;20712;-80
2023/04/21 04:11:11;;;;;;;3.42;3.22;;;;;;;5.70;100.00;95128.03;5010042;28;20033;-77
2023/04/21 04:13:36;;;;;;;3.58;3.38;;;;;;;5.74;100.00;95129.44;5036385;28;20469;-78
2023/04/21 04:16:02;;;;;;;3.97;3.70;;;;;;;5.77;100.00;95131.00;5033207;28;20115;-78
2023/04/21 04:18:27;;;;;;;4.57;4.18;;;;;;;5.84;100.00;95120.84;5031373;28;20465;-79
2023/04/21 04:20:53;;;;;;;5.38;5.07;;;;;;;5.92;100.00;95128.91;5031418;28;20029;-77
2023/04/21 04:23:18;;;;;;;4.38;4.05;;;;;;;5.95;100.00;95127.78;5032074;28;20048;-78
2023/04/21 04:25:44;;;;;;;4.60;4.28;;;;;;;5.96;100.00;95125.06;5034132;28;20036;-78
2023/04/21 04:28:11;;;;;;;6.07;4.38;;;;;;;6.00;100.00;95117.81;5032552;28;20053;-76
2023/04/21 04:30:36;;;;;;;5.97;4.60;;;;;;;6.26;100.00;95113.03;5031088;28;20033;-76
2023/04/21 04:33:02;;;;;;;5.03;4.53;;;;;;;6.31;100.00;95117.88;5031244;28;20091;-76
2023/04/21 04:35:27;;;;;;;4.55;3.95;;;;;;;6.13;100.00;95128.91;5026246;28;20057;-77
2023/04/21 04:37:53;;;;;;;3.85;3.55;;;;;;;6.15;100.00;95134.84;5035655;28;20405;-77
2023/04/21 04:40:19;;;;;;;4.32;3.92;;;;;;;6.12;100.00;95118.59;5029156;28;20021;-77
2023/04/21 04:42:45;;;;;;;6.07;3.75;;;;;;;6.08;100.00;95120.63;5032542;28;20088;-76
2023/04/21 04:45:12;;;;;;;4.70;4.30;;;;;;;6.09;100.00;95108.41;5009296;28;20114;-77
2023/04/21 04:47:38;;;;;;;5.88;4.30;;;;;;;6.10;100.00;95110.88;5018396;28;20044;-76
2023/04/21 04:50:04;;;;;;;4.38;4.13;;;;;;;6.14;100.00;95103.63;5027561;28;20021;-77
2023/04/21 04:52:30;;;;;;;3.95;3.70;;;;;;;6.11;100.00;95111.72;5030454;28;20029;-76
2023/04/21 04:54:55;;;;;;;3.50;3.28;;;;;;;6.17;100.00;95108.56;5010859;28;20029;-77
2023/04/21 04:57:21;;;;;;;4.25;3.92;;;;;;;6.18;100.00;95112.00;5032934;28;20025;-76
2023/04/21 04:59:46;;;;;;;4.32;3.85;;;;;;;6.15;100.00;95113.94;5031955;28;20106;-76
2023/04/21 05:02:12;;;;;;;4.10;3.80;;;;;;;6.10;100.00;95110.06;5033164;28;20090;-76
2023/04/21 05:04:38;;;;;;;3.92;3.63;;;;;;;6.09;100.00;95103.19;5028653;28;20081;-77
2023/04/21 05:07:05;;;;;;;4.40;4.10;;;;;;;6.21;100.00;95102.13;5026523;28;20025;-76
2023/04/21 05:09:30;;;;;;;3.70;3.40;;;;;;;6.18;100.00;95091.94;5025039;28;20056;-76
2023/04/21 05:11:56;;;;;;;4.10;3.88;;;;;;;6.26;100.00;95092.09;5033591;28;20034;-77
2023/04/21 05:14:21;;;;;;;4.32;3.97;;;;;;;6.11;100.00;95102.06;5033996;28;20112;-77
2023/04/21 05:16:46;;;;;;;4.25;3.92;;;;;;;6.13;100.00;95105.38;5024599;28;20029;-76
2023/04/21 05:19:12;;;;;;;3.80;3.50;;;;;;;6.19;100.00;95109.28;5029767;28;20180;-76
2023/04/21 05:21:37;;;;;;;5.30;3.95;;;;;;;6.25;100.00;95106.13;5028507;28;20033;-76
2023/04/21 05:24:03;;;;;;;5.45;3.80;;;;;;;6.28;100.00;95113.72;5031572;28;20056;-76
2023/04/21 05:26:28;;;;;;;4.50;4.20;;;;;;;6.35;100.00;95118.44;5034242;28;20180;-76
2023/04/21 05:28:55;;;;;;;4.30;3.97;;;;;;;6.37;100.00;95116.53;5029891;28;20089;-76
2023/04/21 05:31:21;;;;;;;6.10;5.40;;;;;;;6.38;100.00;95126.03;5031779;28;20099;-76
2023/04/21 05:33:47;;;;;;;6.13;5.45;;;;;;;6.40;100.00;95131.94;5028946;28;20029;-76
2023/04/21 05:36:12;;;;;;;6.35;5.85;;;;;;;6.44;100.00;95143.81;5030850;28;20587;-77
2023/04/21 05:38:38;;;;;;;6.18;5.75;;;;;;;6.46;100.00;95149.72;5009298;28;20068;-77
2023/04/21 05:41:04;;;;;;;5.90;5.32;;;;;;;6.48;100.00;95153.03;5036492;28;20439;-77
2023/04/21 05:43:32;;;;;;;8.07;7.28;;;;;;;6.69;100.00;95150.41;5028730;28;20037;-77
2023/04/21 05:46:01;;;;;;;9.40;7.60;;;;;;;6.68;100.00;95143.50;5027821;28;20544;-76
2023/04/21 05:48:27;;;;;;;9.57;8.68;;;;;;;6.73;100.00;95125.63;5029455;28;20018;-77
2023/04/21 05:50:53;;;;;;;5.55;5.15;;;;;;;6.88;100.00;95110.38;5030817;28;20475;-77
2023/04/21 05:53:18;;;;;;;6.68;4.53;;;;;;;6.76;100.00;95142.88;5029620;28;20033;-76
2023/04/21 05:55:44;;;;;;;5.57;5.18;;;;;;;6.55;100.00;95143.72;5034816;28;20021;-76
2023/04/21 05:58:09;;;;;;;5.68;5.15;;;;;;;6.63;100.00;95130.00;5030075;28;20363;-76
2023/04/21 06:00:35;;;;;;;5.10;4.80;;;;;;;6.55;100.00;95135.88;5031389;28;20037;-76
2023/04/21 06:03:00;;;;;;;5.38;4.95;;;;;;;6.48;100.00;95136.53;5030900;28;20030;-76
2023/04/21 06:05:26;;;;;;;5.15;4.75;;;;;;;6.49;100.00;95131.16;5022701;28;20387;-76
2023/04/21 06:07:51;;;;;;;4.60;4.30;;;;;;;6.49;100.00;95130.34;5028283;28;20021;-76
2023/04/21 06:10:18;;;;;;;4.30;4.00;;;;;;;6.46;100.00;95131.44;5033863;28;20104;-76
2023/04/21 06:12:43;;;;;;;4.30;4.00;;;;;;;6.52;100.00;95130.09;5017025;28;20082;-76
2023/04/21 06:15:09;;;;;;;4.53;4.15;;;;;;;6.66;100.00;95131.50;5018847;28;20040;-75
2023/04/21 06:17:34;;;;;;;5.00;4.10;;;;;;;6.81;100.00;95145.91;5033551;28;20045;-76
2023/04/21 06:20:00;;;;;;;6.15;5.65;;;;;;;7.07;100.00;95140.19;5032235;28;20033;-76
2023/04/21 06:22:26;;;;;;;8.57;7.25;;;;;;;7.13;100.00;95139.66;5038250;28;20497;-76
2023/04/21 06:24:51;;;;;;;6.75;6.15;;;;;;;7.24;100.00;95137.91;5038495;28;20457;-76
2023/04/21 06:27:17;;;;;;;4.72;4.43;;;;;;;7.40;100.00;95132.13;5032273;28;20091;-76
2023/04/21 06:29:42;;;;;;;4.75;4.45;;;;;;;7.58;100.00;95133.13;5015508;28;20036;-77
2023/04/21 06:32:09;;;;;;;4.63;4.32;;;;;;;7.66;100.00;95129.81;5035545;28;20037;-77
2023/04/21 06:34:34;;;;;;;3.97;3.67;;;;;;;7.73;100.00;95130.91;5031631;28;20026;-76
2023/04/21 06:37:00;;;;;;;4.47;4.18;;;;;;;7.77;100.00;95128.84;5035466;28;20111;-77
2023/04/21 06:39:26;;;;;;;5.63;5.07;;;;;;;7.85;100.00;95130.78;5028976;28;20022;-77
2023/04/21 06:41:51;;;;;;;6.35;4.90;;;;;;;7.91;100.00;95129.38;5033489;28;20018;-77
2023/04/21 06:44:17;;;;;;;3.75;3.53;;;;;;;7.76;100.00;95124.56;5035043;28;20064;-77
2023/04/21 06:46:42;;;;;;;3.63;3.40;;;;;;;7.69;100.00;95124.28;5033116;28;20120;-77
2023/04/21 06:49:08;;;;;;;3.80;3.60;;;;;;;7.74;100.00;95127.31;5026311;28;20066;-77
2023/04/21 06:51:33;;;;;;;4.05;3.60;;;;;;;7.88;100.00;95133.13;5033908;28;20047;-78
2023/04/21 06:54:00;;;;;;;4.38;3.83;;;;;;;8.00;100.00;95128.56;5032180;28;20025;-78
2023/04/21 06:56:29;;;;;;;4.50;4.10;;;;;;;8.91;100.00;95129.00;5033867;28;20036;-78
2023/04/21 06:58:55;;;;;;;3.65;3.42;;;;;;;9.31;100.00;95130.44;5033727;28;20029;-78
2023/04/21 07:01:20;;;;;;;3.75;3.47;;;;;;;9.72;100.00;95125.59;5035198;28;20347;-78
2023/04/21 07:03:46;;;;;;;7.90;3.72;;;;;;;10.53;100.00;95127.38;5033526;28;20026;-78
2023/04/21 07:06:11;;;;;;;3.03;2.83;;;;;;;11.30;100.00;95132.66;5031794;28;20160;-79
2023/04/21 07:08:37;;;;;;;2.90;2.70;;;;;;;11.87;98.28;95123.19;5030564;28;20049;-79
2023/04/21 07:11:03;;;;;;;2.92;2.72;;;;;;;12.22;95.20;95109.88;5015394;28;20037;-79
2023/04/21 07:13:28;;;;;;;2.60;2.50;;;;;;;12.34;93.38;95120.91;5035633;28;20035;-76
2023/04/21 07:15:54;;;;;;;2.95;2.65;;;;;;;11.87;92.42;95112.66;5032201;28;20029;-79
2023/04/21 07:18:19;;;;;;;3.05;2.83;;;;;;;11.66;94.52;95120.22;5030061;28;20052;-77
2023/04/21 07:20:45;;;;;;;3.10;2.90;;;;;;;11.68;94.49;95126.13;5023324;28;20032;-77
2023/04/21 07:23:10;;;;;;;3.67;2.60;;;;;;;11.66;93.93;95123.69;5026912;28;20040;-78
2023/04/21 07:25:36;;;;;;;2.95;2.67;;;;;;;11.89;92.87;95117.78;5034113;28;20037;-77
2023/04/21 07:28:02;;;;;;;3.22;2.90;;;;;;;11.65;91.57;95116.75;5033982;28;20413;-77
2023/04/21 07:30:29;;;;;;;2.70;2.50;;;;;;;11.77;93.27;95111.16;5033670;28;20029;-78
2023/04/21 07:32:54;;;;;;;2.67;2.50;;;;;;;11.67;91.67;95114.78;5033738;28;20040;-79
2023/04/21 07:35:20;;;;;;;2.90;2.63;;;;;;;11.80;91.09;95106.38;5029588;28;20029;-75
2023/04/21 07:37:45;;;;;;;3.33;2.30;;;;;;;11.46;87.97;95108.16;5027060;28;20030;-76
2023/04/21 07:40:11;;;;;;;2.50;2.30;;;;;;;11.55;90.55;95110.78;5028222;28;20029;-75
2023/04/21 07:42:37;;;;;;;2.20;2.10;;;;;;;12.09;88.53;95109.56;5029341;28;20056;-74
2023/04/21 07:45:03;;;;;;;2.20;2.10;;;;;;;12.07;84.00;95115.00;5033741;28;20056;-78
2023/04/21 07:47:29;;;;;;;3.35;2.17;;;;;;;12.41;87.66;95110.50;5014742;28;20484;-79
2023/04/21 07:49:54;;;;;;;2.75;2.47;;;;;;;12.78;85.41;95113.56;5033409;28;20033;-78
2023/04/21 07:52:20;;;;;;;5.07;2.80;;;;;;;13.06;83.62;95107.84;5031058;28;20056;-77
2023/04/21 07:54:45;;;;;;;2.60;2.40;;;;;;;13.26;80.57;95116.19;5029696;28;20082;-78
2023/04/21 07:57:11;;;;;;;4.20;2.30;;;;;;;13.66;80.02;95119.63;5015967;28;20025;-77
2023/04/21 07:59:36;;;;;;;2.13;1.90;;;;;;;14.07;76.21;95115.84;5029534;28;20024;-73
2023/04/21 08:02:01;;;;;;;3.25;1.70;;;;;;;14.50;73.19;95117.97;5017260;28;20132;-80
2023/04/21 08:04:27;;;;;;;1.92;1.83;;;;;;;14.51;71.72;95116.97;4999652;28;20517;-81
2023/04/21 08:06:52;;;;;;;1.98;1.85;;;;;;;14.49;69.86;95111.03;5027184;28;20033;-74
2023/04/21 08:09:18;;;;;;;2.33;2.22;;;;;;;14.06;74.68;95110.75;5032890;28;20033;-72
2023/04/21 08:11:43;;;;;;;2.00;1.90;;;;;;;13.93;74.87;95111.34;5030950;28;20051;-74
2023/04/21 08:14:10;;;;;;;2.25;2.05;;;;;;;14.05;75.01;95109.91;5027038;28;20037;-77
2023/04/21 08:16:37;;;;;;;2.67;2.10;;;;;;;14.69;76.32;95110.47;5012102;28;20087;-77
2023/04/21 08:19:03;;;;;;;1.83;1.73;;;;;;;15.13;74.41;95119.47;5030258;28;20034;-74
2023/04/21 08:21:28;;;;;;;1.92;1.83;;;;;;;14.87;72.21;95126.06;5025073;28;20038;-74
2023/04/21 08:23:54;;;;;;;1.90;1.80;;;;;;;15.11;72.35;95117.00;5012766;28;20024;-75
2023/04/21 08:26:21;;;;;;;2.10;1.90;;;;;;;15.27;71.40;95118.66;5029390;28;20060;-73
2023/04/21 08:28:50;;;;;;;2.00;1.90;;;;;;;14.61;69.82;95116.72;5033281;28;20269;-75
2023/04/21 08:31:16;;;;;;;1.70;1.60;;;;;;;14.75;70.55;95113.25;5026085;28;20030;-74
2023/04/21 08:33:42;;;;;;;1.80;1.70;;;;;;;15.42;68.27;95102.69;5027806;28;20025;-74
2023/04/21 08:36:08;;;;;;;1.70;1.60;;;;;;;15.09;69.33;95119.00;5030030;28;20574;-75
2023/04/21 08:38:34;;;;;;;6.28;1.90;;;;;;;15.78;68.90;95114.31;5025123;28;20025;-76
2023/04/21 08:41:00;;;;;;;2.40;2.17;;;;;;;15.82;67.02;95110.25;5028752;28;20168;-76
2023/04/21 08:43:27;;;;;;;2.25;2.10;;;;;;;16.39;66.50;95110.38;5028977;28;20079;-75
2023/04/21 08:45:53;;;;;;;2.53;2.22;;;;;;;15.92;66.93;95109.16;5026522;28;20378;-75
2023/04/21 08:48:22;;;;;;;2.70;2.50;;;;;;;15.99;68.37;95104.72;5028664;28;20485;-75
2023/04/21 08:50:49;;;;;;;2.58;2.40;;;;;;;16.58;66.97;95106.22;5029870;28;20135;-76
2023/04/21 08:53:15;;;;;;;2.90;2.70;;;;;;;17.04;65.17;95099.59;5032665;28;20053;-76
2023/04/21 08:55:41;;;;;;;2.45;2.30;;;;;;;17.67;63.16;95099.59;5033345;28;20025;-75
2023/04/21 08:58:08;;;;;;;3.40;2.30;;;;;;;17.93;61.52;95103.34;5021979;28;20029;-76
2023/04/21 09:00:34;;;;;;;2.85;2.65;;;;;;;18.21;60.93;95105.84;5035513;28;20120;-74
2023/04/21 09:03:01;;;;;;;2.53;2.20;;;;;;;18.46;58.27;95103.41;5020437;28;20039;-75
2023/04/21 09:05:36;;;;;;;2.13;2.03;;;;;;;17.74;60.02;95103.91;5025915;28;20064;-76
2023/04/21 09:08:09;;;;;;;3.60;3.30;;;;;;;17.61;60.38;95111.88;5024743;28;20031;-76
2023/04/21 09:10:50;;;;;;;2.42;1.90;;;;;;;17.36;61.82;95109.75;5027043;28;20041;-77
2023/04/21 09:13:17;;;;;;;2.80;2.42;;;;;;;17.72;62.37;95102.50;5030167;28;20041;-75
2023/04/21 09:15:49;;;;;;;2.40;2.30;;;;;;;18.66;58.99;95104.41;5027367;28;20563;-73
2023/04/21 09:18:16;;;;;;;2.00;1.90;;;;;;;19.40;56.45;95104.25;5028316;28;20073;-75
2023/04/21 09:20:44;;;;;;;2.35;2.25;;;;;;;19.61;54.49;95105.78;5028978;28;20029;-77
2023/04/21 09:23:10;;;;;;;2.47;2.17;;;;;;;19.35;55.66;95112.91;5028440;28;20034;-77
2023/04/21 09:25:40;;;;;;;2.10;2.00;;;;;;;18.32;58.96;95117.75;5028989;28;20030;-77
2023/04/21 09:28:08;;;;;;;2.00;1.88;;;;;;;17.46;58.22;95120.81;5033089;28;20029;-76
2023/04/21 09:30:38;;;;;;;3.25;1.65;;;;;;;16.31;61.33;95114.00;5031384;28;20040;-75
2023/04/21 09:33:04;;;;;;;2.33;1.95;;;;;;;15.73;64.16;95117.50;5024234;28;20033;-78
2023/04/21 09:35:35;;;;;;;1.75;1.65;;;;;;;15.68;64.68;95119.06;5031857;28;20049;-75
2023/04/21 09:38:02;;;;;;;1.80;1.70;;;;;;;16.24;64.59;95106.97;5031351;28;20021;-74
2023/04/21 09:40:31;;;;;;;2.25;1.88;;;;;;;16.17;65.74;95120.19;5024399;28;20089;-75
2023/04/21 09:42:57;;;;;;;1.75;1.65;;;;;;;15.84;65.54;95123.34;5025077;28;20028;-76
2023/04/21 09:45:28;;;;;;;2.75;1.90;;;;;;;16.11;64.88;95126.28;5031159;28;20691;-74
2023/04/21 09:48:00;;;;;;;3.30;2.05;;;;;;;15.55;66.66;95143.63;5034748;28;20139;-73
2023/04/21 09:50:27;;;;;;;1.77;1.67;;;;;;;14.96;68.32;95151.47;5035459;28;20091;-75
2023/04/21 09:52:54;;;;;;;2.78;1.95;;;;;;;14.08;68.79;95156.41;5038415;28;20025;-74
2023/04/21 09:55:25;;;;;;;2.08;1.90;;;;;;;14.06;71.74;95158.41;5034231;28;20025;-75
2023/04/21 09:57:51;;;;;;;2.63;2.40;;;;;;;14.07;72.18;95144.97;5033770;28;20033;-78
2023/04/21 10:00:18;;;;;;;2.47;2.30;;;;;;;14.71;71.59;95150.91;5034833;28;20026;-76
2023/04/21 10:02:50;;;;;;;4.93;2.45;;;;;;;15.19;71.07;95145.25;5034972;28;20116;-75
2023/04/21 10:05:15;;;;;;;3.65;3.35;;;;;;;15.65;67.32;95140.69;5033181;28;20033;-72
2023/04/21 10:07:46;;;;;;;5.05;4.55;;;;;;;16.23;66.36;95132.72;5038779;28;20021;-70
2023/04/21 10:10:19;;;;;;;3.13;2.80;;;;;;;16.64;63.35;95133.03;5034550;28;20036;-72
2023/04/21 10:12:45;;;;;;;6.13;2.70;;;;;;;16.60;63.50;95128.09;5028100;28;20049;-72
2023/04/21 10:15:30;;;;;;;2.45;2.35;;;;;;;16.42;65.91;95141.03;5018314;28;20079;-72
2023/04/21 10:18:21;;;;;;;3.17;2.88;;;;;;;16.22;67.53;95136.38;5036172;28;20575;-74
2023/04/21 10:20:56;;;;;;;3.85;2.90;;;;;;;16.16;67.82;95126.53;5030512;28;20021;-74
2023/04/21 10:23:38;;;;;;;3.42;3.17;;;;;;;16.08;67.21;95122.16;5030225;28;20028;-72
2023/04/21 10:26:11;;;;;;;3.30;3.00;;;;;;;16.17;68.07;95121.03;5037407;28;20117;-72
2023/04/21 10:28:58;;;;;;;3.70;3.40;;;;;;;16.06;67.78;95118.06;5029102;28;20034;-72
2023/04/21 10:31:30;;;;;;;3.63;3.08;;;;;;;16.33;68.26;95117.28;5028068;28;20030;-77
2023/04/21 10:34:06;;;;;;;3.35;3.08;;;;;;;17.17;63.31;95121.94;5042300;28;20108;-74
2023/04/21 10:36:33;;;;;;;;;;;;;;;17.35;60.95;95121.38;5035491;28;20576;-72
2023/04/21 10:39:02;;;;;;;5.93;2.90;;;;;;;18.17;60.28;95126.78;5026564;28;19917;-72
2023/04/21 10:41:30;;;;;;;3.75;3.45;;;;;;;18.53;57.22;95124.72;5026743;28;20025;-73
2023/04/21 10:44:21;;;;;;;4.50;4.00;;;;;;;18.52;57.54;95123.09;5035797;28;20048;-74
2023/04/21 10:46:49;;;;;;;3.55;2.95;;;;;;;18.74;58.64;95113.00;5030533;28;20079;-73
2023/04/21 10:49:22;;;;;;;6.68;5.10;;;;;;;18.64;57.40;95107.28;5033408;28;20041;-74
2023/04/21 10:52:02;;;;;;;4.85;2.90;;;;;;;18.85;57.15;95106.22;5026628;28;20063;-74
2023/04/21 10:54:42;;;;;;;3.67;2.50;;;;;;;18.86;56.44;95099.06;5015388;28;20026;-74
2023/04/21 10:57:13;;;;;;;2.88;2.50;;;;;;;18.89;57.88;95096.75;5029270;28;20080;-73
2023/04/21 10:59:39;;;;;;;2.65;2.55;;;;;;;19.75;54.41;95094.00;5030306;28;20017;-76
2023/04/21 11:02:06;;;;;;;3.53;3.20;;;;;;;19.42;51.74;95095.00;5035604;28;20028;-73
2023/04/21 11:04:32;;;;;;;2.83;2.63;;;;;;;19.27;52.17;95089.94;5031271;28;20017;-73
2023/04/21 11:07:09;;;;;;;3.72;2.13;;;;;;;18.19;52.83;95083.94;5028408;28;20446;-73
2023/04/21 11:09:36;;;;;;;2.00;1.85;;;;;;;18.22;55.08;95091.50;5022653;28;20025;-73
2023/04/21 11:12:07;;;;;;;3.13;2.38;;;;;;;18.08;53.64;95089.88;5027464;28;20419;-73
2023/04/21 11:14:35;;;;;;;2.17;1.98;;;;;;;17.37;57.63;95091.94;5032258;28;20029;-75
2023/04/21 11:17:01;;;;;;;5.65;2.00;;;;;;;17.53;55.86;95085.44;5034924;28;20040;-75
2023/04/21 11:19:27;;;;;;;3.13;2.05;;;;;;;17.40;57.86;95088.88;5026279;28;20018;-74
2023/04/21 11:21:53;;;;;;;3.50;2.20;;;;;;;17.63;57.77;95087.72;5030723;28;20403;-75
2023/04/21 11:24:22;;;;;;;3.67;3.38;;;;;;;17.80;58.46;95088.19;5029611;28;20026;-72
2023/04/21 11:26:48;;;;;;;6.78;4.18;;;;;;;17.78;57.87;95083.03;5034032;28;20120;-72
2023/04/21 11:29:14;;;;;;;7.70;4.13;;;;;;;17.15;59.89;95079.59;5028349;28;20064;-72
2023/04/21 11:31:41;;;;;;;8.52;4.68;;;;;;;16.38;63.71;95073.38;5031522;28;20101;-72